Time;durP1;ratioP1;P1;durP2;ratioP2;P2;SDS_P1;SDS_P2;PMS_P1;PMS_P2;Temp;Humidity;BMP_temperature;BMP_pressure;BME280_temperature;BME280_humidity;BME280_pressure;Samples;Min_cycle;Max_cycle;Signal;HPM_P1;HPM_P2
2021/12/16 00:09:13;;;;;;;16.92;10.10;;;9.20;99.90;;;;;;5015820;28;20065;-84
2021/12/16 00:28:59;;;;;;;19.08;10.25;;;9.20;99.90;;;;;;5014431;28;20136;-83
2021/12/16 00:33:35;;;;;;;22.02;10.48;;;9.20;99.90;;;;;;5016929;28;20049;-83
2021/12/16 00:36:03;;;;;;;17.23;9.90;;;9.10;99.90;;;;;;5014010;28;20037;-83
2021/12/16 00:38:29;;;;;;;21.17;10.43;;;9.20;99.90;;;;;;5015682;28;20060;-83
2021/12/16 00:40:56;;;;;;;18.98;9.68;;;9.20;99.90;;;;;;5013857;28;20045;-83
2021/12/16 00:54:11;;;;;;;18.95;9.73;;;9.10;99.90;;;;;;5017578;28;20044;-83
2021/12/16 00:56:39;;;;;;;21.35;10.88;;;9.10;99.90;;;;;;5017457;28;20049;-83
2021/12/16 00:59:07;;;;;;;20.95;10.38;;;9.10;99.90;;;;;;5015539;28;20045;-83
2021/12/16 01:35:05;;;;;;;20.13;10.75;;;9.10;99.90;;;;;;5014110;28;20672;-83
2021/12/16 01:50:15;;;;;;;18.83;11.43;;;9.00;99.90;;;;;;5029644;28;20038;-83
2021/12/16 01:55:24;;;;;;;21.52;11.30;;;9.10;99.90;;;;;;5017046;28;20079;-84
2021/12/16 01:57:55;;;;;;;22.27;11.10;;;9.10;99.90;;;;;;5018932;28;20049;-83
2021/12/16 02:00:43;;;;;;;22.63;10.75;;;9.10;99.90;;;;;;5002381;28;20343;-83
2021/12/16 02:03:08;;;;;;;21.65;11.25;;;9.10;99.90;;;;;;5016349;28;20041;-83
2021/12/16 02:05:56;;;;;;;24.25;12.52;;;9.10;99.90;;;;;;4997592;28;20045;-84
2021/12/16 02:08:31;;;;;;;26.48;11.52;;;9.00;99.90;;;;;;5006644;28;20504;-83
2021/12/16 02:11:44;;;;;;;19.75;11.15;;;9.10;99.90;;;;;;5001674;28;20123;-84
2021/12/16 02:33:38;;;;;;;22.75;10.98;;;9.10;99.90;;;;;;5015474;28;20164;-83
2021/12/16 02:36:35;;;;;;;20.27;10.98;;;9.20;99.90;;;;;;5012759;28;20056;-83
2021/12/16 02:39:07;;;;;;;22.63;11.27;;;9.20;99.90;;;;;;5016890;28;20053;-83
2021/12/16 02:41:32;;;;;;;19.02;10.60;;;9.10;99.90;;;;;;5005841;28;20037;-83
2021/12/16 02:44:19;;;;;;;20.92;10.80;;;9.20;99.90;;;;;;5016898;28;20276;-84
2021/12/16 02:49:55;;;;;;;21.00;11.38;;;9.10;99.90;;;;;;4961159;28;20485;-83
2021/12/16 02:52:26;;;;;;;21.33;12.27;;;9.10;99.90;;;;;;4997310;28;20128;-83
2021/12/16 02:54:52;;;;;;;26.33;11.52;;;9.10;99.90;;;;;;5000673;28;20053;-83
2021/12/16 02:57:18;;;;;;;27.63;12.30;;;9.10;99.90;;;;;;5002031;28;20056;-84
2021/12/16 02:59:48;;;;;;;23.17;10.93;;;9.10;99.90;;;;;;5002539;28;20042;-83
2021/12/16 03:02:19;;;;;;;22.92;11.30;;;9.10;99.90;;;;;;5018822;28;20492;-83
2021/12/16 03:04:49;;;;;;;19.88;10.90;;;9.10;99.90;;;;;;5002615;28;20824;-83
2021/12/16 03:07:16;;;;;;;21.48;11.35;;;9.10;99.90;;;;;;5017320;28;20397;-83
2021/12/16 03:10:23;;;;;;;24.90;12.07;;;9.10;99.90;;;;;;5002509;28;20451;-84
2021/12/16 03:13:06;;;;;;;23.92;12.35;;;9.00;99.90;;;;;;5017691;28;20342;-83
2021/12/16 03:16:02;;;;;;;24.33;11.77;;;8.90;99.90;;;;;;4999131;28;20036;-83
2021/12/16 03:19:45;;;;;;;23.17;11.38;;;8.90;99.90;;;;;;5018644;28;20037;-84
2021/12/16 03:21:30;;;;;;;21.48;10.75;;;8.90;99.90;;;;;;5010163;28;20145;-83
2021/12/16 03:37:18;;;;;;;24.23;12.13;;;8.80;99.90;;;;;;5014113;28;20048;-83
2021/12/16 03:40:00;;;;;;;28.83;11.95;;;8.70;99.90;;;;;;4999843;28;20143;-83
2021/12/16 03:42:37;;;;;;;21.35;11.88;;;8.70;99.90;;;;;;5009842;28;20661;-82
2021/12/16 03:48:30;;;;;;;22.33;12.15;;;8.60;99.90;;;;;;5018040;28;20067;-83
2021/12/16 03:50:58;;;;;;;22.87;11.90;;;8.50;99.90;;;;;;5014219;28;20038;-83
2021/12/16 03:53:25;;;;;;;22.35;12.43;;;8.40;99.90;;;;;;5036117;28;20029;-83
2021/12/16 03:55:54;;;;;;;27.50;12.95;;;8.40;99.90;;;;;;5000065;28;20054;-83
2021/12/16 03:58:20;;;;;;;23.75;13.07;;;8.40;99.90;;;;;;5033794;28;20049;-82
2021/12/16 04:00:54;;;;;;;24.17;12.52;;;8.40;99.90;;;;;;4998720;28;20103;-83
2021/12/16 04:03:21;;;;;;;24.13;12.68;;;8.30;99.90;;;;;;4997472;28;20045;-83
2021/12/16 04:05:47;;;;;;;29.50;12.60;;;8.30;99.90;;;;;;4999122;28;20046;-83
2021/12/16 04:08:14;;;;;;;25.15;12.85;;;8.20;99.90;;;;;;4997927;28;20587;-84
2021/12/16 04:10:52;;;;;;;22.60;12.80;;;8.20;99.90;;;;;;5032576;28;20052;-83
2021/12/16 04:13:19;;;;;;;26.58;13.18;;;8.10;99.90;;;;;;5017850;28;20460;-83
2021/12/16 04:15:45;;;;;;;28.20;12.07;;;8.10;99.90;;;;;;5002330;28;20034;-83
2021/12/16 04:18:11;;;;;;;24.30;12.40;;;8.10;99.90;;;;;;5015902;28;20045;-83
2021/12/16 04:20:37;;;;;;;23.58;12.27;;;8.10;99.90;;;;;;5014517;28;20041;-83
2021/12/16 04:23:06;;;;;;;26.38;13.93;;;8.00;99.90;;;;;;5003933;28;20477;-83
2021/12/16 04:25:35;;;;;;;28.13;13.52;;;8.00;99.90;;;;;;5032428;28;20052;-83
2021/12/16 04:28:05;;;;;;;24.50;13.88;;;7.90;99.90;;;;;;5015512;28;20056;-83
2021/12/16 04:30:34;;;;;;;26.15;14.45;;;7.80;99.90;;;;;;5001191;28;20091;-83
2021/12/16 04:32:59;;;;;;;25.50;13.65;;;7.90;99.90;;;;;;5019159;28;20095;-83
2021/12/16 04:35:25;;;;;;;37.08;14.90;;;7.90;99.90;;;;;;5011879;28;20033;-83
2021/12/16 04:37:52;;;;;;;26.35;14.23;;;7.80;99.90;;;;;;5002456;28;20034;-83
2021/12/16 04:40:19;;;;;;;36.60;15.07;;;7.90;99.90;;;;;;5017028;28;20757;-83
2021/12/16 04:42:47;;;;;;;34.88;16.83;;;7.80;99.90;;;;;;4997896;28;20038;-83
2021/12/16 04:45:16;;;;;;;28.15;14.20;;;7.80;99.90;;;;;;5013137;28;20049;-83
2021/12/16 04:47:42;;;;;;;31.92;14.80;;;7.70;99.90;;;;;;5016267;28;20073;-84
2021/12/16 04:50:09;;;;;;;29.90;14.80;;;7.70;99.90;;;;;;4995633;28;20481;-82
2021/12/16 04:52:35;;;;;;;34.00;14.82;;;7.60;99.90;;;;;;5001107;28;20130;-83
2021/12/16 04:55:04;;;;;;;31.55;15.90;;;7.70;99.90;;;;;;4997848;28;20136;-83
2021/12/16 04:57:30;;;;;;;34.95;15.98;;;7.70;99.90;;;;;;5001674;28;20424;-83
2021/12/16 04:59:55;;;;;;;27.40;15.65;;;7.80;99.90;;;;;;5033481;28;20037;-83
2021/12/16 05:02:24;;;;;;;33.42;15.75;;;7.80;99.90;;;;;;4999391;28;20107;-83
2021/12/16 05:04:49;;;;;;;31.10;15.77;;;7.70;99.90;;;;;;5000529;28;20060;-83
2021/12/16 05:07:16;;;;;;;32.72;16.23;;;7.60;99.90;;;;;;4998803;28;20497;-83
2021/12/16 05:12:15;;;;;;;34.50;17.02;;;7.70;99.90;;;;;;5016059;28;20372;-84
2021/12/16 05:14:43;;;;;;;30.48;16.40;;;7.70;99.90;;;;;;4999826;28;20560;-83
2021/12/16 05:17:24;;;;;;;36.25;17.38;;;7.70;99.90;;;;;;5023204;28;20034;-84
2021/12/16 05:19:51;;;;;;;35.45;17.60;;;7.80;99.90;;;;;;5002156;28;20045;-83
2021/12/16 05:25:08;;;;;;;34.15;17.38;;;7.90;99.90;;;;;;5025215;28;20363;-84
2021/12/16 05:27:36;;;;;;;36.20;17.15;;;7.90;99.90;;;;;;5020962;28;20511;-83
2021/12/16 05:30:03;;;;;;;35.80;18.23;;;8.00;99.90;;;;;;5020573;28;20595;-83
2021/12/16 05:32:29;;;;;;;39.10;17.10;;;8.00;99.90;;;;;;5019385;28;20032;-84
2021/12/16 05:34:55;;;;;;;33.33;18.15;;;8.00;99.90;;;;;;4999099;28;20041;-84
2021/12/16 05:37:20;;;;;;;31.42;16.48;;;8.00;99.90;;;;;;5003423;28;20111;-83
2021/12/16 05:39:46;;;;;;;34.88;18.90;;;8.10;99.90;;;;;;5017917;28;20045;-83
2021/12/16 05:42:12;;;;;;;36.92;18.08;;;8.10;99.90;;;;;;5017264;28;20440;-83
2021/12/16 05:44:38;;;;;;;35.95;17.05;;;8.10;99.90;;;;;;5004297;28;20048;-84
2021/12/16 05:47:04;;;;;;;33.67;16.67;;;8.10;99.90;;;;;;5018318;28;20110;-83
2021/12/16 05:49:30;;;;;;;35.05;17.92;;;8.20;99.90;;;;;;5020352;28;20416;-84
2021/12/16 05:51:56;;;;;;;32.10;16.95;;;8.10;99.90;;;;;;5015639;28;20481;-83
2021/12/16 05:54:22;;;;;;;33.78;17.20;;;8.20;99.90;;;;;;5019783;28;20124;-84
2021/12/16 05:56:48;;;;;;;32.53;17.17;;;8.20;99.90;;;;;;5018661;28;20112;-83
2021/12/16 05:59:17;;;;;;;33.78;17.08;;;8.10;99.90;;;;;;5004606;28;20045;-83
2021/12/16 06:01:47;;;;;;;32.55;16.30;;;8.10;99.90;;;;;;5001287;28;20469;-83
2021/12/16 06:04:13;;;;;;;31.98;17.88;;;8.10;99.90;;;;;;5021283;28;20045;-83
2021/12/16 06:06:42;;;;;;;32.97;16.75;;;8.10;99.90;;;;;;5016744;28;20065;-83
2021/12/16 06:09:09;;;;;;;30.70;16.33;;;8.10;99.90;;;;;;5032615;28;20037;-84
2021/12/16 06:11:41;;;;;;;33.85;16.13;;;8.20;99.90;;;;;;5017938;28;20051;-83
2021/12/16 06:14:17;;;;;;;32.50;15.40;;;8.20;99.90;;;;;;5019275;28;20322;-83
2021/12/16 06:27:35;;;;;;;;;;;8.20;99.90;;;;;;5024447;28;20057;-84
2021/12/16 06:30:01;;;;;;;32.95;14.30;;;8.20;99.90;;;;;;5019055;28;19932;-83
2021/12/16 06:32:27;;;;;;;29.63;15.20;;;8.20;99.90;;;;;;5017976;28;20514;-83
2021/12/16 06:34:55;;;;;;;33.47;16.48;;;8.20;99.90;;;;;;5016254;28;20029;-83
2021/12/16 06:37:22;;;;;;;31.88;16.15;;;8.20;99.90;;;;;;5017995;28;20037;-82
2021/12/16 06:39:48;;;;;;;29.83;16.08;;;8.20;99.90;;;;;;5018904;28;20042;-83
2021/12/16 06:42:14;;;;;;;39.00;16.30;;;8.20;99.90;;;;;;5021413;28;20046;-83
2021/12/16 06:44:56;;;;;;;30.40;15.05;;;8.10;99.90;;;;;;4999873;28;20359;-83
2021/12/16 06:47:30;;;;;;;33.53;15.68;;;8.10;99.90;;;;;;5002403;28;20210;-83
2021/12/16 06:49:56;;;;;;;34.42;16.15;;;8.20;99.90;;;;;;5024899;28;20508;-84
2021/12/16 06:52:29;;;;;;;32.60;15.35;;;8.10;99.90;;;;;;5000268;28;20037;-83
2021/12/16 06:57:50;;;;;;;38.55;15.50;;;8.10;99.90;;;;;;5033210;28;20530;-83
2021/12/16 07:00:20;;;;;;;38.08;17.35;;;8.00;99.90;;;;;;5033305;28;20053;-83
2021/12/16 07:03:02;;;;;;;33.60;15.85;;;8.10;99.90;;;;;;4998802;28;20049;-83
2021/12/16 07:05:38;;;;;;;35.42;15.95;;;8.00;99.90;;;;;;5011299;28;20152;-83
2021/12/16 07:08:09;;;;;;;30.42;16.10;;;7.90;99.90;;;;;;5018764;28;20034;-83
2021/12/16 07:10:35;;;;;;;41.05;16.67;;;8.00;99.90;;;;;;5001591;28;20053;-83
2021/12/16 07:13:07;;;;;;;40.38;17.40;;;7.90;99.90;;;;;;5015430;28;20219;-83
2021/12/16 07:15:34;;;;;;;43.00;17.83;;;7.90;99.90;;;;;;5017468;28;20041;-83
2021/12/16 07:18:01;;;;;;;45.22;19.52;;;7.90;99.90;;;;;;5003117;28;20114;-84
2021/12/16 07:20:32;;;;;;;46.95;18.13;;;7.80;99.90;;;;;;4998729;28;20056;-83
2021/12/16 07:22:58;;;;;;;44.55;19.95;;;7.80;99.90;;;;;;5017577;28;20053;-84
2021/12/16 07:25:24;;;;;;;45.42;19.13;;;7.70;99.90;;;;;;5000124;28;20434;-83
2021/12/16 07:27:53;;;;;;;49.55;20.88;;;7.70;99.90;;;;;;5002525;28;20091;-83
2021/12/16 07:30:23;;;;;;;46.60;20.92;;;7.70;99.90;;;;;;5032971;28;20041;-83
2021/12/16 07:32:49;;;;;;;48.90;19.90;;;7.70;99.90;;;;;;5002319;28;20535;-82
2021/12/16 07:35:18;;;;;;;50.15;19.85;;;7.70;99.90;;;;;;5000585;28;20044;-83
2021/12/16 07:37:45;;;;;;;50.53;18.98;;;7.70;99.90;;;;;;5008409;28;20037;-83
2021/12/16 07:40:14;;;;;;;51.13;18.20;;;7.60;99.90;;;;;;5029795;28;20077;-83
2021/12/16 07:43:10;;;;;;;39.95;18.73;;;7.60;99.90;;;;;;5002040;28;20815;-84
2021/12/16 07:45:29;;;;;;;42.78;19.83;;;7.60;99.90;;;;;;5019383;28;20043;-84
2021/12/16 07:47:55;;;;;;;49.78;21.48;;;7.60;99.90;;;;;;5015843;28;20041;-84
2021/12/16 07:50:22;;;;;;;46.65;21.63;;;7.70;99.90;;;;;;4998917;28;20063;-84
2021/12/16 07:52:48;;;;;;;53.22;21.88;;;7.70;99.90;;;;;;5002624;28;20026;-83
2021/12/16 07:55:14;;;;;;;52.53;24.13;;;7.60;99.90;;;;;;5002693;28;20067;-83
2021/12/16 07:57:41;;;;;;;56.53;23.13;;;7.70;99.90;;;;;;5003414;28;20053;-84
2021/12/16 08:00:12;;;;;;;65.72;23.42;;;7.70;99.90;;;;;;5016259;28;20517;-83
2021/12/16 08:02:39;;;;;;;67.88;24.38;;;7.60;99.90;;;;;;5024312;28;20528;-82
2021/12/16 08:05:07;;;;;;;56.58;24.17;;;7.70;99.90;;;;;;5004157;28;20050;-83
2021/12/16 08:07:33;;;;;;;60.20;24.52;;;7.70;99.90;;;;;;5023369;28;20052;-84
2021/12/16 08:10:00;;;;;;;68.10;25.95;;;7.70;99.90;;;;;;4998876;28;20041;-84
2021/12/16 08:12:26;;;;;;;61.30;25.70;;;7.80;99.90;;;;;;4999894;28;20043;-83
2021/12/16 08:14:52;;;;;;;74.75;26.95;;;7.80;99.90;;;;;;5013764;28;20792;-83
2021/12/16 08:17:18;;;;;;;62.60;26.35;;;7.90;99.90;;;;;;5034728;28;20048;-84
2021/12/16 08:19:45;;;;;;;72.68;26.98;;;7.90;99.90;;;;;;5002490;28;20333;-84
2021/12/16 08:22:12;;;;;;;57.30;25.90;;;7.90;99.90;;;;;;5002077;28;20045;-84
2021/12/16 08:24:38;;;;;;;58.50;25.55;;;8.00;99.90;;;;;;5002972;28;20502;-83
2021/12/16 08:27:04;;;;;;;59.17;25.95;;;8.00;99.90;;;;;;5000944;28;20144;-83
2021/12/16 08:29:31;;;;;;;55.03;25.70;;;8.00;99.90;;;;;;5015930;28;20455;-83
2021/12/16 08:31:57;;;;;;;57.00;24.55;;;8.10;99.90;;;;;;4997906;28;20095;-83
2021/12/16 08:34:24;;;;;;;59.95;25.45;;;8.10;99.90;;;;;;4994487;28;20175;-84
2021/12/16 08:36:49;;;;;;;59.08;25.98;;;8.10;99.90;;;;;;4997690;28;20037;-83
2021/12/16 08:39:17;;;;;;;60.55;25.77;;;8.20;99.90;;;;;;5001947;28;20382;-83
2021/12/16 08:41:48;;;;;;;56.00;25.25;;;8.20;99.90;;;;;;5001097;28;20037;-83
2021/12/16 08:44:15;;;;;;;56.60;25.92;;;8.30;99.90;;;;;;5013375;28;20056;-83
2021/12/16 08:46:44;;;;;;;56.20;26.33;;;8.30;99.90;;;;;;4998335;28;20052;-84
2021/12/16 08:49:10;;;;;;;61.25;26.48;;;8.40;99.90;;;;;;5016975;28;20291;-83
2021/12/16 08:51:43;;;;;;;59.80;27.25;;;8.40;99.90;;;;;;5012014;28;20041;-83
2021/12/16 08:54:09;;;;;;;59.67;27.23;;;8.40;99.90;;;;;;5021320;28;20033;-83
2021/12/16 08:56:36;;;;;;;57.83;27.35;;;8.40;99.90;;;;;;5004979;28;20062;-83
2021/12/16 08:59:04;;;;;;;64.60;27.55;;;8.50;99.90;;;;;;5023963;28;20045;-83
2021/12/16 09:01:32;;;;;;;67.90;27.08;;;8.50;99.90;;;;;;5010237;28;20057;-84
2021/12/16 09:03:59;;;;;;;76.80;28.65;;;8.50;99.90;;;;;;5005714;28;20127;-84
2021/12/16 09:06:25;;;;;;;74.68;27.95;;;8.50;99.90;;;;;;4992262;28;20073;-82
2021/12/16 09:08:52;;;;;;;62.78;27.10;;;8.60;99.90;;;;;;5007365;28;20045;-84
2021/12/16 09:11:22;;;;;;;71.07;28.80;;;8.70;99.90;;;;;;5020572;28;20451;-83
2021/12/16 09:13:50;;;;;;;81.65;30.02;;;8.70;99.90;;;;;;5019331;28;20033;-83
2021/12/16 09:16:19;;;;;;;75.78;29.20;;;8.80;99.90;;;;;;5020269;28;20464;-83
2021/12/16 09:18:45;;;;;;;76.07;28.20;;;8.80;99.90;;;;;;5023273;28;20154;-84
2021/12/16 09:21:19;;;;;;;82.15;29.75;;;8.80;99.90;;;;;;5009666;28;20491;-83
2021/12/16 09:23:46;;;;;;;85.72;29.17;;;8.80;99.90;;;;;;5004908;28;20066;-84
2021/12/16 09:26:12;;;;;;;84.95;29.30;;;8.80;99.90;;;;;;5024022;28;20072;-83
2021/12/16 09:28:39;;;;;;;87.13;29.15;;;8.90;99.90;;;;;;5008233;28;20616;-83
2021/12/16 09:31:12;;;;;;;119.95;32.75;;;9.00;99.90;;;;;;5005621;28;20025;-83
2021/12/16 09:33:47;;;;;;;92.45;28.85;;;9.00;99.90;;;;;;5022601;28;20072;-83
2021/12/16 09:36:13;;;;;;;;;;;9.00;99.90;;;;;;5019436;28;20417;-83
2021/12/16 09:38:40;;;;;;;172.63;33.28;;;9.00;99.90;;;;;;5024153;28;19978;-83
2021/12/16 09:41:07;;;;;;;98.78;29.25;;;9.10;99.90;;;;;;5022384;28;20037;-84
2021/12/16 09:43:36;;;;;;;108.55;28.08;;;9.10;99.90;;;;;;5023678;28;20044;-83
2021/12/16 09:46:06;;;;;;;108.55;29.25;;;9.10;99.90;;;;;;5021043;28;20456;-83
2021/12/16 09:48:33;;;;;;;121.57;28.98;;;9.10;99.90;;;;;;5021766;28;20462;-83
2021/12/16 09:51:00;;;;;;;111.97;30.13;;;9.10;99.90;;;;;;5040462;28;20465;-83
2021/12/16 09:53:27;;;;;;;130.25;28.23;;;9.20;99.90;;;;;;5007624;28;20111;-83
2021/12/16 09:55:59;;;;;;;113.53;27.90;;;9.10;99.90;;;;;;5035309;28;20151;-83
2021/12/16 09:58:26;;;;;;;196.02;32.92;;;9.20;99.90;;;;;;5037885;28;20045;-83
2021/12/16 10:00:56;;;;;;;201.77;30.50;;;9.20;99.90;;;;;;5007202;28;20066;-83
2021/12/16 10:03:23;;;;;;;191.07;30.75;;;9.30;99.90;;;;;;5023858;28;20045;-83
2021/12/16 10:05:48;;;;;;;203.82;29.05;;;9.30;99.90;;;;;;5015544;28;20060;-83
2021/12/16 10:08:15;;;;;;;285.00;36.33;;;9.30;99.90;;;;;;5001127;28;20041;-83
2021/12/16 10:10:44;;;;;;;149.38;25.52;;;9.20;99.90;;;;;;5003892;28;20033;-83
2021/12/16 10:13:13;;;;;;;298.50;33.00;;;9.30;99.90;;;;;;5021246;28;20041;-83
2021/12/16 10:18:09;;;;;;;395.70;39.75;;;9.20;99.90;;;;;;5035507;28;20052;-83
2021/12/16 10:20:40;;;;;;;207.55;27.30;;;9.20;99.90;;;;;;5032533;28;20033;-84
2021/12/16 10:23:14;;;;;;;235.80;28.80;;;9.20;99.90;;;;;;5003902;28;20068;-83
2021/12/16 10:25:46;;;;;;;226.07;27.67;;;9.30;99.90;;;;;;5017398;28;20056;-83
2021/12/16 10:28:43;;;;;;;211.05;27.55;;;9.30;99.90;;;;;;5010406;28;20068;-84
2021/12/16 10:31:20;;;;;;;128.48;23.15;;;9.40;99.90;;;;;;5018613;28;20049;-84
2021/12/16 10:33:59;;;;;;;159.38;23.00;;;9.50;99.90;;;;;;5000984;28;20037;-83
2021/12/16 10:36:31;;;;;;;140.55;23.15;;;9.40;99.90;;;;;;5016580;28;20045;-83
2021/12/16 10:39:19;;;;;;;228.88;30.05;;;9.50;99.90;;;;;;5011141;28;20041;-83
2021/12/16 10:41:52;;;;;;;133.75;23.00;;;9.50;99.90;;;;;;5018633;28;20070;-83
2021/12/16 10:44:28;;;;;;;127.68;22.48;;;9.50;99.90;;;;;;5018774;28;20493;-83
2021/12/16 10:47:12;;;;;;;225.20;29.58;;;9.50;99.90;;;;;;5002516;28;20041;-83
2021/12/16 10:49:51;;;;;;;100.50;21.67;;;9.50;99.90;;;;;;5010701;28;20045;-83
2021/12/16 10:52:22;;;;;;;171.15;26.15;;;9.60;99.90;;;;;;5000876;28;20048;-83
2021/12/16 10:54:50;;;;;;;134.45;23.52;;;9.60;99.90;;;;;;5015776;28;20463;-83
2021/12/16 10:57:19;;;;;;;135.15;21.65;;;9.50;99.90;;;;;;5003694;28;20053;-83
2021/12/16 10:59:47;;;;;;;120.85;22.20;;;9.60;99.90;;;;;;5015420;28;20144;-83
2021/12/16 11:02:17;;;;;;;168.98;22.75;;;9.60;99.90;;;;;;5002292;28;20051;-83
2021/12/16 11:04:54;;;;;;;148.68;23.15;;;9.60;99.90;;;;;;5001726;28;20243;-83
2021/12/16 11:07:23;;;;;;;122.05;19.67;;;9.60;99.90;;;;;;5015524;28;20038;-84
2021/12/16 11:10:11;;;;;;;219.00;27.00;;;9.60;99.90;;;;;;5001976;28;20048;-83
2021/12/16 11:12:56;;;;;;;134.73;19.98;;;9.70;99.90;;;;;;4998132;28;20038;-83
2021/12/16 11:15:44;;;;;;;115.18;20.27;;;9.70;99.90;;;;;;5014032;28;20034;-83
2021/12/16 11:18:21;;;;;;;301.40;30.25;;;9.70;99.90;;;;;;5018244;28;20084;-83
2021/12/16 11:20:58;;;;;;;135.95;22.35;;;9.80;99.90;;;;;;5001218;28;20450;-83
2021/12/16 11:23:27;;;;;;;107.00;19.80;;;9.80;99.90;;;;;;5018151;28;20060;-83
2021/12/16 11:25:58;;;;;;;89.65;20.05;;;9.80;99.90;;;;;;4999814;28;20048;-83
2021/12/16 11:28:24;;;;;;;99.30;18.00;;;9.80;99.90;;;;;;5001024;28;20069;-83
2021/12/16 11:31:06;;;;;;;111.32;18.60;;;9.80;99.90;;;;;;5034862;28;20477;-83
2021/12/16 11:33:39;;;;;;;69.05;18.15;;;9.70;99.90;;;;;;5017823;28;20454;-83
2021/12/16 11:36:07;;;;;;;97.72;19.35;;;9.80;99.90;;;;;;5014123;28;20493;-83
2021/12/16 11:38:38;;;;;;;94.25;18.65;;;9.80;99.90;;;;;;5002532;28;20106;-83
2021/12/16 11:41:04;;;;;;;97.50;18.23;;;9.90;99.90;;;;;;5000180;28;20513;-83
2021/12/16 11:43:33;;;;;;;110.00;20.90;;;9.80;99.90;;;;;;5016536;28;20041;-83
2021/12/16 11:46:00;;;;;;;101.80;20.00;;;9.80;99.90;;;;;;5002410;28;20104;-83
2021/12/16 11:48:29;;;;;;;95.00;19.80;;;9.80;99.90;;;;;;5002757;28;20237;-83
2021/12/16 11:51:04;;;;;;;99.78;20.25;;;9.80;99.90;;;;;;4997279;28;20216;-82
2021/12/16 11:53:44;;;;;;;70.70;18.50;;;9.90;99.90;;;;;;5004370;28;20428;-83
2021/12/16 11:56:11;;;;;;;89.72;19.75;;;10.00;99.90;;;;;;5021571;28;20129;-83
2021/12/16 11:58:40;;;;;;;83.30;21.45;;;10.00;99.90;;;;;;5007003;28;20481;-84
2021/12/16 12:01:19;;;;;;;84.20;19.77;;;10.00;99.90;;;;;;4998861;28;20443;-83
2021/12/16 12:03:46;;;;;;;73.65;19.63;;;10.00;99.90;;;;;;5001021;28;20092;-83
2021/12/16 12:06:25;;;;;;;81.78;20.38;;;10.10;99.90;;;;;;5011871;28;20041;-83
2021/12/16 12:08:53;;;;;;;98.25;21.15;;;10.00;99.90;;;;;;5014039;28;20045;-83
2021/12/16 12:11:26;;;;;;;93.00;21.73;;;10.00;99.90;;;;;;5010647;28;20404;-83
2021/12/16 12:14:00;;;;;;;91.35;21.05;;;10.00;99.90;;;;;;5016060;28;20045;-83
2021/12/16 12:16:45;;;;;;;62.95;20.33;;;10.00;99.90;;;;;;5001363;28;20068;-83
2021/12/16 12:19:18;;;;;;;67.03;20.67;;;10.10;99.90;;;;;;5017853;28;20481;-83
2021/12/16 12:21:54;;;;;;;68.30;21.08;;;10.10;99.90;;;;;;5015090;28;20045;-83
2021/12/16 12:24:32;;;;;;;58.45;19.05;;;10.10;99.90;;;;;;5002754;28;20049;-83
2021/12/16 12:27:01;;;;;;;68.00;19.75;;;10.10;99.90;;;;;;5001947;28;20144;-83
2021/12/16 12:29:37;;;;;;;73.25;20.33;;;10.10;99.90;;;;;;5014573;28;20061;-83
2021/12/16 12:32:14;;;;;;;66.75;19.27;;;10.10;99.90;;;;;;4999098;28;20114;-83
2021/12/16 12:34:44;;;;;;;61.50;19.45;;;10.20;99.90;;;;;;5017265;28;20061;-83
2021/12/16 12:37:14;;;;;;;49.47;18.30;;;10.10;99.90;;;;;;4998761;28;20048;-83
2021/12/16 12:39:47;;;;;;;46.80;17.83;;;10.10;99.90;;;;;;5031947;28;20048;-83
2021/12/16 12:42:15;;;;;;;41.83;18.25;;;10.10;99.90;;;;;;5008600;28;20120;-83
2021/12/16 12:44:42;;;;;;;64.65;20.52;;;10.00;99.90;;;;;;5013540;28;20466;-83
2021/12/16 12:47:13;;;;;;;67.80;18.92;;;10.00;99.90;;;;;;5002811;28;20125;-83
2021/12/16 12:49:39;;;;;;;51.65;19.60;;;10.00;99.90;;;;;;5013959;28;20532;-83
2021/12/16 12:52:22;;;;;;;52.92;20.02;;;10.10;99.90;;;;;;5013986;28;20029;-83
2021/12/16 12:55:11;;;;;;;47.63;19.20;;;10.20;99.90;;;;;;5015274;28;20132;-83
2021/12/16 12:57:38;;;;;;;47.70;19.50;;;10.20;99.90;;;;;;4999226;28;20041;-83
2021/12/16 13:00:22;;;;;;;53.40;18.92;;;10.20;99.90;;;;;;5014740;28;20041;-82
2021/12/16 13:02:47;;;;;;;56.42;18.48;;;10.20;99.90;;;;;;5017022;28;20475;-83
2021/12/16 13:05:21;;;;;;;52.95;19.75;;;10.10;99.90;;;;;;5016308;28;20052;-84
2021/12/16 13:08:00;;;;;;;49.83;19.10;;;10.30;99.90;;;;;;5033837;28;20164;-82
2021/12/16 13:10:35;;;;;;;71.65;19.30;;;10.30;99.90;;;;;;5016162;28;20081;-84
2021/12/16 13:13:34;;;;;;;;;;;10.20;99.90;;;;;;4998385;28;20367;-84
2021/12/16 13:27:21;;;;;;;64.53;17.60;;;10.20;99.90;;;;;;5023580;28;20052;-83
2021/12/16 13:30:51;;;;;;;73.38;16.08;;;10.30;99.90;;;;;;5001716;28;20042;-83
2021/12/16 13:33:14;;;;;;;66.63;16.45;;;10.20;99.90;;;;;;5009243;28;20501;-83
2021/12/16 13:35:48;;;;;;;81.15;17.25;;;10.20;99.90;;;;;;5013002;28;20049;-83
2021/12/16 13:38:15;;;;;;;67.00;16.48;;;10.30;99.90;;;;;;5016180;28;20513;-83
2021/12/16 13:40:43;;;;;;;67.40;16.45;;;10.20;99.90;;;;;;5004831;28;20115;-84
2021/12/16 13:43:19;;;;;;;64.15;16.52;;;10.20;99.90;;;;;;5020453;28;20592;-83
2021/12/16 13:58:08;;;;;;;91.05;17.85;;;10.30;99.90;;;;;;5020965;28;20149;-83
2021/12/16 14:03:45;;;;;;;54.25;15.48;;;10.30;99.90;;;;;;5020021;28;20053;-83
2021/12/16 14:08:47;;;;;;;31.95;11.35;;;10.20;99.90;;;;;;5019332;28;20551;-83
2021/12/16 14:16:57;;;;;;;32.35;12.25;;;10.10;99.90;;;;;;5020708;28;20056;-83
2021/12/16 14:43:03;;;;;;;47.38;14.38;;;9.90;99.90;;;;;;5027578;28;20103;-83
2021/12/16 14:50:44;;;;;;;43.90;15.55;;;9.90;99.90;;;;;;5014680;28;20060;-83
2021/12/16 14:53:12;;;;;;;65.75;16.70;;;9.90;99.90;;;;;;5018650;28;20524;-83
2021/12/16 14:55:39;;;;;;;42.65;14.68;;;9.80;99.90;;;;;;5003052;28;20053;-84
2021/12/16 14:58:05;;;;;;;49.28;15.90;;;9.80;99.90;;;;;;5032642;28;20045;-84
2021/12/16 15:00:45;;;;;;;56.47;15.43;;;9.80;99.90;;;;;;5004490;28;20194;-83
2021/12/16 15:03:22;;;;;;;59.03;17.45;;;9.80;99.90;;;;;;5016212;28;20041;-82
2021/12/16 15:05:53;;;;;;;53.42;16.63;;;9.80;99.90;;;;;;4999887;28;20073;-83
2021/12/16 15:08:27;;;;;;;89.07;19.35;;;9.80;99.90;;;;;;5015314;28;20111;-83
2021/12/16 15:10:54;;;;;;;45.22;16.13;;;9.80;99.90;;;;;;5019553;28;20034;-83
2021/12/16 15:13:45;;;;;;;32.25;13.15;;;9.90;99.90;;;;;;5012096;28;20128;-84
2021/12/16 15:16:45;;;;;;;35.25;13.75;;;9.80;99.90;;;;;;5000849;28;20029;-84
2021/12/16 15:39:23;;;;;;;53.78;16.45;;;9.80;99.90;;;;;;5016695;28;20041;-84
2021/12/16 15:45:11;;;;;;;42.80;14.68;;;9.70;99.90;;;;;;5034395;28;20124;-83
2021/12/16 15:47:43;;;;;;;43.08;14.85;;;9.70;99.90;;;;;;5015150;28;20116;-83
2021/12/16 15:50:13;;;;;;;66.57;16.50;;;9.80;99.90;;;;;;5008206;28;20112;-83
2021/12/16 15:52:44;;;;;;;57.90;18.10;;;9.80;99.90;;;;;;4997475;28;20300;-83
2021/12/16 15:55:19;;;;;;;63.83;17.05;;;9.80;99.90;;;;;;5023049;28;20053;-83
2021/12/16 15:57:44;;;;;;;52.72;18.08;;;9.80;99.90;;;;;;5001350;28;20038;-83
2021/12/16 16:00:20;;;;;;;55.88;17.95;;;9.80;99.90;;;;;;5017514;28;20964;-83
2021/12/16 16:02:47;;;;;;;94.32;20.73;;;9.90;99.90;;;;;;5014521;28;20056;-83
2021/12/16 16:05:13;;;;;;;59.40;17.65;;;9.80;99.90;;;;;;5010712;28;20045;-83
2021/12/16 16:07:41;;;;;;;62.83;17.52;;;9.80;99.90;;;;;;5017038;28;20481;-83
2021/12/16 16:10:11;;;;;;;55.65;18.30;;;9.90;99.90;;;;;;5016120;28;20598;-83
2021/12/16 16:12:36;;;;;;;76.93;19.98;;;9.90;99.90;;;;;;5001511;28;20091;-83
2021/12/16 16:15:16;;;;;;;69.53;20.50;;;9.80;99.90;;;;;;5016187;28;20037;-83
2021/12/16 16:17:54;;;;;;;78.57;19.85;;;9.90;99.90;;;;;;5016573;28;20357;-83
2021/12/16 16:20:22;;;;;;;95.82;22.08;;;9.90;99.90;;;;;;5013941;28;20087;-82
2021/12/16 16:22:48;;;;;;;178.52;26.50;;;9.90;99.90;;;;;;5002085;28;20116;-83
2021/12/16 16:25:14;;;;;;;153.32;27.15;;;9.80;99.90;;;;;;5001645;28;20120;-83
2021/12/16 16:27:40;;;;;;;128.65;22.25;;;9.90;99.90;;;;;;5001937;28;20041;-83
2021/12/16 16:30:08;;;;;;;71.65;21.10;;;9.90;99.90;;;;;;5003062;28;20613;-83
2021/12/16 16:33:01;;;;;;;68.53;20.35;;;10.00;99.90;;;;;;5026411;28;20068;-83
2021/12/16 16:35:27;;;;;;;68.50;20.48;;;9.90;99.90;;;;;;5012768;28;20045;-82
2021/12/16 16:37:53;;;;;;;80.88;22.88;;;9.90;99.90;;;;;;5014263;28;20034;-83
2021/12/16 16:40:19;;;;;;;66.43;20.25;;;9.90;99.90;;;;;;4998408;28;20048;-83
2021/12/16 16:42:46;;;;;;;105.80;24.35;;;9.90;99.90;;;;;;5013214;28;20041;-83
2021/12/16 16:45:19;;;;;;;112.55;25.38;;;9.90;99.90;;;;;;5028841;28;20410;-83
2021/12/16 16:47:51;;;;;;;67.63;20.48;;;9.90;99.90;;;;;;5012693;28;20452;-83
2021/12/16 16:50:23;;;;;;;67.45;19.88;;;9.90;99.90;;;;;;4994392;28;20358;-84